KFLD/FLD METAR and TAF weather

Enter ICAO airport designator
Station Type Date Time Source
KFLD METAR 2019/11/18 04:17 UTC NOAA

KFLD 180417Z AUTO 18003KT 2 1/2SM BR BKN004 BKN022 OVC050 01/00 A2981 RMK AO2 T00110000


Station Type Date Time Source
KFLD Decoded METAR 2019/11/18 04:17 UTC NOAA

FOND DU LAC COUNTY AIRPORT, WI, United States (KFLD) 43-46N 88-29W 240M
Nov 17, 2019 - 11:17 PM EST / 2019.11.18 0417 UTC
Wind: from the S (180 degrees) at 3 MPH (3 KT):0
Visibility: 2 1/2 mile(s):0
Sky conditions: overcast
Weather: mist
Temperature: 34.0 F (1.1 C)
Dew Point: 32.0 F (0.0 C)
Relative Humidity: 92%
Pressure (altimeter): 29.81 in. Hg (1009 hPa)
ob: KFLD 180417Z AUTO 18003KT 2 1/2SM BR BKN004 BKN022 OVC050 01/00 A2981 RMK AO2 T00110000
cycle: 4

Station Type Date Time Source
KFLD TAF UTC NOAA

Error!

Example: see airport list